Time;durP1;ratioP1;P1;durP2;ratioP2;P2;SDS_P1;SDS_P2;PMS_P1;PMS_P2;Temp;Humidity;BMP_temperature;BMP_pressure;BME280_temperature;BME280_humidity;BME280_pressure;Samples;Min_cycle;Max_cycle;Signal;HPM_P1;HPM_P2
2022/01/18 00:01:54;;;;;;;26.05;14.50;;;4.40;99.90;;;;;;4958352;28;20467;-86
2022/01/18 00:04:20;;;;;;;26.50;10.80;;;4.40;99.90;;;;;;4984053;28;20203;-86
2022/01/18 00:06:50;;;;;;;26.95;13.52;;;;;;;;;;4960062;28;20427;-86
2022/01/18 00:09:19;;;;;;;21.02;11.77;;;4.40;99.90;;;;;;4958901;28;20253;-84
2022/01/18 00:11:51;;;;;;;19.50;10.63;;;;;;;;;;4947755;28;20623;-86
2022/01/18 00:14:41;;;;;;;29.58;14.05;;;;;;;;;;4950685;28;20208;-87
2022/01/18 00:17:34;;;;;;;22.13;12.73;;;4.40;99.90;;;;;;4959546;28;20188;-89
2022/01/18 00:20:00;;;;;;;25.05;13.90;;;;;;;;;;4963113;28;20179;-87
2022/01/18 00:22:28;;;;;;;24.13;13.07;;;;;;;;;;4966499;28;20279;-86
2022/01/18 00:24:54;;;;;;;35.22;16.70;;;;;;;;;;4960835;28;20512;-86
2022/01/18 00:27:20;;;;;;;24.75;14.05;;;;;;;;;;4958810;28;20214;-87
2022/01/18 00:29:59;;;;;;;27.73;13.65;;;;;;;;;;4958487;28;20204;-86
2022/01/18 00:32:40;;;;;;;30.67;13.05;;;4.20;99.90;;;;;;4967341;28;20249;-88
2022/01/18 00:35:07;;;;;;;24.67;14.15;;;;;;;;;;4966072;28;20192;-87
2022/01/18 00:37:35;;;;;;;29.52;15.05;;;;;;;;;;4963842;28;20188;-87
2022/01/18 00:40:03;;;;;;;30.23;15.57;;;4.10;99.90;;;;;;4959765;28;20184;-88
2022/01/18 00:42:30;;;;;;;25.45;13.20;;;;;;;;;;4963729;28;20271;-87
2022/01/18 00:44:55;;;;;;;21.98;11.43;;;4.20;99.90;;;;;;4969864;28;20206;-86
2022/01/18 00:47:21;;;;;;;27.63;14.20;;;;;;;;;;4985392;28;20700;-86
2022/01/18 00:49:49;;;;;;;25.13;14.17;;;;;;;;;;4961706;28;20187;-87
2022/01/18 00:52:18;;;;;;;23.67;11.93;;;;;;;;;;4956371;28;20469;-88
2022/01/18 00:54:46;;;;;;;22.55;12.88;;;;;;;;;;4968169;28;20504;-87
2022/01/18 00:57:12;;;;;;;29.45;13.32;;;4.30;99.90;;;;;;4959365;28;20456;-85
2022/01/18 00:59:40;;;;;;;15.38;9.25;;;4.30;99.90;;;;;;4950463;28;20183;-87
2022/01/18 01:02:06;;;;;;;20.27;10.15;;;4.40;99.90;;;;;;4965345;28;20246;-88
2022/01/18 01:04:37;;;;;;;16.83;9.85;;;4.40;99.90;;;;;;4961219;28;20206;-85
2022/01/18 01:07:03;;;;;;;25.90;12.80;;;;;;;;;;4968454;28;20260;-88
2022/01/18 01:09:28;;;;;;;20.73;12.13;;;4.30;99.90;;;;;;4952980;28;20180;-88
2022/01/18 01:11:54;;;;;;;25.17;12.33;;;;;;;;;;4952428;28;20206;-88
2022/01/18 01:14:24;;;;;;;24.07;13.10;;;;;;;;;;4954698;28;20211;-86
2022/01/18 01:17:18;;;;;;;21.13;11.60;;;;;;;;;;4951812;28;21126;-87
2022/01/18 01:32:00;;;;;;;21.95;10.70;;;;;;;;;;4954570;28;20552;-86
2022/01/18 01:36:41;;;;;;;29.95;14.65;;;;;;;;;;4964458;28;20229;-85
2022/01/18 01:42:25;;;;;;;30.42;16.98;;;;;;;;;;4965373;28;20210;-87
2022/01/18 01:44:51;;;;;;;37.20;18.63;;;;;;;;;;4956879;28;20196;-86
2022/01/18 01:47:19;;;;;;;43.17;20.52;;;4.10;99.90;;;;;;4953337;28;20287;-85
2022/01/18 01:49:47;;;;;;;43.90;18.05;;;4.10;99.90;;;;;;4954706;28;20176;-88
2022/01/18 01:52:13;;;;;;;41.17;18.60;;;;;;;;;;4952411;28;20188;-88
2022/01/18 01:54:39;;;;;;;37.38;19.67;;;4.00;99.90;;;;;;4971322;28;20218;-88
2022/01/18 01:57:06;;;;;;;42.63;19.88;;;;;;;;;;4959136;28;20208;-84
2022/01/18 01:59:32;;;;;;;45.85;21.65;;;4.00;99.90;;;;;;4953565;28;20596;-87
2022/01/18 02:01:58;;;;;;;40.63;19.88;;;;;;;;;;4957404;28;20218;-87
2022/01/18 02:04:24;;;;;;;39.28;19.55;;;3.90;99.90;;;;;;4953341;28;20219;-88
2022/01/18 02:06:50;;;;;;;38.80;19.80;;;;;;;;;;4968060;28;20180;-89
2022/01/18 02:09:18;;;;;;;38.78;19.02;;;;;;;;;;4961111;28;20233;-86
2022/01/18 02:11:44;;;;;;;44.35;19.08;;;3.90;99.90;;;;;;4974046;28;20184;-85
2022/01/18 02:14:16;;;;;;;39.83;20.33;;;;;;;;;;4965277;28;20255;-84
2022/01/18 02:22:12;;;;;;;43.35;20.48;;;;;;;;;;4956033;28;20226;-86
2022/01/18 02:24:38;;;;;;;40.03;18.40;;;;;;;;;;4958463;28;20584;-86
2022/01/18 02:27:04;;;;;;;41.93;21.43;;;;;;;;;;4959402;28;20455;-85
2022/01/18 02:29:30;;;;;;;43.95;20.55;;;;;;;;;;4954882;28;20428;-85
2022/01/18 02:31:56;;;;;;;42.78;18.20;;;4.30;99.90;;;;;;4959405;28;20199;-89
2022/01/18 02:34:24;;;;;;;47.70;20.90;;;4.30;99.90;;;;;;4966382;28;20199;-88
2022/01/18 02:36:50;;;;;;;45.30;21.42;;;;;;;;;;4970055;28;20202;-85
2022/01/18 02:39:25;;;;;;;45.85;20.17;;;4.30;99.90;;;;;;4975037;28;20567;-85
2022/01/18 02:41:56;;;;;;;47.67;21.38;;;4.20;99.90;;;;;;4966842;28;20211;-88
2022/01/18 02:44:22;;;;;;;49.00;21.30;;;;;;;;;;4955105;28;20600;-89
2022/01/18 02:46:48;;;;;;;38.45;17.98;;;;;;;;;;4960874;28;20195;-86
2022/01/18 02:49:15;;;;;;;47.60;23.27;;;;;;;;;;4956398;28;20197;-87
2022/01/18 02:51:41;;;;;;;48.33;21.40;;;;;;;;;;4959569;28;20443;-85
2022/01/18 02:54:15;;;;;;;48.38;20.55;;;4.00;99.90;;;;;;4960968;28;20796;-86
2022/01/18 02:56:48;;;;;;;52.25;22.02;;;3.80;99.90;;;;;;4957520;28;20206;-85
2022/01/18 02:59:25;;;;;;;43.38;20.48;;;3.60;99.90;;;;;;4957825;28;20546;-89
2022/01/18 03:04:39;;;;;;;53.03;21.77;;;3.60;99.90;;;;;;4955838;28;20222;-87
2022/01/18 03:07:05;;;;;;;54.22;22.10;;;3.60;99.90;;;;;;4953251;28;20353;-88
2022/01/18 03:09:31;;;;;;;43.67;20.00;;;;;;;;;;4956375;28;21296;-86
2022/01/18 03:11:57;;;;;;;49.05;21.67;;;;;;;;;;4954290;28;20218;-86
2022/01/18 03:14:23;;;;;;;47.70;19.57;;;;;;;;;;4948169;28;20679;-89
2022/01/18 03:16:49;;;;;;;46.10;22.77;;;;;;;;;;4953295;28;20902;-85
2022/01/18 03:19:15;;;;;;;55.63;21.23;;;;;;;;;;4954736;28;20497;-88
2022/01/18 03:21:41;;;;;;;54.80;26.15;;;;;;;;;;4956066;28;20208;-88
2022/01/18 03:24:33;;;;;;;55.83;22.57;;;;;;;;;;4950212;28;20191;-86
2022/01/18 03:29:44;;;;;;;45.92;19.42;;;3.40;99.90;;;;;;4952029;28;20713;-86
2022/01/18 03:32:10;;;;;;;41.22;20.23;;;3.50;99.90;;;;;;4959587;28;20245;-89
2022/01/18 03:34:36;;;;;;;45.63;17.80;;;;;;;;;;4956465;28;20203;-87
2022/01/18 03:37:02;;;;;;;50.23;18.83;;;;;;;;;;4953379;28;20265;-85
2022/01/18 03:39:28;;;;;;;53.50;21.30;;;;;;;;;;4969735;28;20658;-88
2022/01/18 03:42:14;;;;;;;39.47;20.60;;;;;;;;;;4960757;28;20547;-85
2022/01/18 03:44:39;;;;;;;41.53;21.75;;;3.60;99.90;;;;;;4962458;28;20498;-88
2022/01/18 03:47:05;;;;;;;43.77;20.80;;;;;;;;;;4956644;28;20215;-86
2022/01/18 03:49:35;;;;;;;48.70;20.33;;;;;;;;;;4961028;28;20273;-86
2022/01/18 03:52:01;;;;;;;40.33;20.13;;;3.50;99.90;;;;;;4958168;28;20577;-88
2022/01/18 03:54:27;;;;;;;39.47;17.77;;;;;;;;;;4964939;28;20286;-86
2022/01/18 03:56:53;;;;;;;44.20;19.90;;;;;;;;;;4957376;28;20223;-86
2022/01/18 03:59:19;;;;;;;35.50;17.60;;;;;;;;;;4949222;28;20526;-86
2022/01/18 04:01:45;;;;;;;43.77;19.07;;;;;;;;;;4957303;28;20272;-87
2022/01/18 04:04:11;;;;;;;44.47;19.25;;;;;;;;;;4954162;28;20474;-86
2022/01/18 04:06:37;;;;;;;44.50;18.75;;;;;;;;;;4995557;28;20495;-88
2022/01/18 04:09:03;;;;;;;36.53;16.30;;;;;;;;;;4953878;28;20192;-87
2022/01/18 04:11:29;;;;;;;30.57;15.40;;;;;;;;;;4926298;28;1022786;-85
2022/01/18 04:13:55;;;;;;;29.13;13.00;;;;;;;;;;4962248;28;20219;-87
2022/01/18 04:16:22;;;;;;;37.30;15.97;;;;;;;;;;4962058;28;20220;-87
2022/01/18 04:19:21;;;;;;;30.85;14.48;;;;;;;;;;4958411;28;21181;-87
2022/01/18 04:27:11;;;;;;;31.95;13.05;;;2.80;99.90;;;;;;4958457;28;20334;-87
2022/01/18 04:29:37;;;;;;;26.20;13.33;;;;;;;;;;4960333;28;20271;-85
2022/01/18 04:32:03;;;;;;;32.10;13.83;;;;;;;;;;4952623;28;20660;-87
2022/01/18 04:34:29;;;;;;;30.70;12.48;;;2.90;99.90;;;;;;4962579;28;20486;-86
2022/01/18 04:36:55;;;;;;;25.75;12.45;;;2.80;99.90;;;;;;4975999;28;20214;-87
2022/01/18 04:39:21;;;;;;;31.83;11.93;;;;;;;;;;4961032;28;20196;-84
2022/01/18 04:41:47;;;;;;;27.57;12.63;;;;;;;;;;4956064;28;20385;-86
2022/01/18 04:49:46;;;;;;;26.02;11.85;;;2.60;99.90;;;;;;4969497;28;20194;-86
2022/01/18 04:52:13;;;;;;;26.50;13.10;;;;;;;;;;4969210;28;20180;-87
2022/01/18 04:54:41;;;;;;;28.92;15.23;;;2.70;99.90;;;;;;4968587;28;20215;-86
2022/01/18 04:59:37;;;;;;;30.20;13.85;;;2.60;99.90;;;;;;4962151;28;21290;-88
2022/01/18 05:02:03;;;;;;;28.50;13.73;;;;;;;;;;4967426;28;20353;-83
2022/01/18 05:04:29;;;;;;;29.52;12.27;;;3.00;99.90;;;;;;4967471;28;22921;-87
2022/01/18 05:06:59;;;;;;;25.67;12.10;;;;;;;;;;4959471;28;20187;-85
2022/01/18 05:09:25;;;;;;;33.53;13.18;;;;;;;;;;4953277;28;20443;-84
2022/01/18 05:12:01;;;;;;;25.63;11.87;;;;;;;;;;4958540;28;20378;-87
2022/01/18 05:14:30;;;;;;;21.67;11.18;;;3.40;99.90;;;;;;4955177;28;20458;-85
2022/01/18 05:17:32;;;;;;;24.50;11.93;;;;;;;;;;4951910;28;20270;-86
2022/01/18 05:20:26;;;;;;;23.02;11.13;;;;;;;;;;4961003;28;20542;-87
2022/01/18 05:23:01;;;;;;;44.13;21.48;;;;;;;;;;4964256;28;20252;-84
2022/01/18 05:25:28;;;;;;;32.05;14.98;;;3.40;99.90;;;;;;4975855;28;20192;-84
2022/01/18 05:27:54;;;;;;;24.88;13.57;;;;;;;;;;4960993;28;20184;-87
2022/01/18 05:30:20;;;;;;;43.00;19.15;;;;;;;;;;4957504;28;20442;-84
2022/01/18 05:32:46;;;;;;;45.47;17.85;;;3.60;99.90;;;;;;4961560;28;20271;-85
2022/01/18 05:35:12;;;;;;;27.37;15.07;;;3.70;99.90;;;;;;4951975;28;20639;-85
2022/01/18 05:37:37;;;;;;;38.60;18.40;;;3.70;99.90;;;;;;4953629;28;20913;-85
2022/01/18 05:40:03;;;;;;;27.63;13.97;;;3.80;99.90;;;;;;4956071;28;20679;-84
2022/01/18 05:42:29;;;;;;;31.67;14.27;;;3.80;99.90;;;;;;4957979;28;20211;-85
2022/01/18 05:44:55;;;;;;;29.63;14.60;;;;;;;;;;4954342;28;20701;-85
2022/01/18 05:47:20;;;;;;;41.00;20.93;;;4.20;99.90;;;;;;4947179;28;20196;-86
2022/01/18 05:49:46;;;;;;;36.57;17.10;;;4.20;99.90;;;;;;4960610;28;20439;-86
2022/01/18 05:52:11;;;;;;;35.17;12.60;;;4.30;99.90;;;;;;4967143;28;20344;-86
2022/01/18 05:54:37;;;;;;;29.00;15.80;;;4.30;99.90;;;;;;4965402;28;20306;-86
2022/01/18 05:57:02;;;;;;;38.63;17.63;;;4.20;99.90;;;;;;4961352;28;20203;-87
2022/01/18 05:59:35;;;;;;;40.13;19.83;;;4.20;99.90;;;;;;4958312;28;20192;-85
2022/01/18 06:02:03;;;;;;;44.45;17.33;;;4.20;99.90;;;;;;4959858;28;20294;-86
2022/01/18 06:07:20;;;;;;;38.35;21.10;;;4.10;99.90;;;;;;4974944;28;20184;-86
2022/01/18 06:09:46;;;;;;;40.07;19.23;;;4.10;99.90;;;;;;4964225;28;20684;-86
2022/01/18 06:12:12;;;;;;;40.20;19.53;;;;;;;;;;4965900;28;20199;-84
2022/01/18 06:14:37;;;;;;;31.27;16.77;;;4.20;99.90;;;;;;4966288;28;20204;-88
2022/01/18 06:17:03;;;;;;;32.40;17.33;;;4.20;99.90;;;;;;4966979;28;20423;-86
2022/01/18 06:19:29;;;;;;;41.33;17.93;;;4.20;99.90;;;;;;4967908;28;20206;-86
2022/01/18 06:21:56;;;;;;;32.53;17.70;;;4.20;99.90;;;;;;4959342;28;20530;-86
2022/01/18 06:24:22;;;;;;;32.38;14.68;;;4.20;99.90;;;;;;4969330;28;20257;-88
2022/01/18 06:26:48;;;;;;;29.60;15.50;;;;;;;;;;4962029;28;20185;-84
2022/01/18 06:29:14;;;;;;;39.70;18.67;;;4.20;99.90;;;;;;4963264;28;20735;-86
2022/01/18 06:31:39;;;;;;;32.77;16.00;;;;;;;;;;4963062;28;20465;-87
2022/01/18 06:34:06;;;;;;;40.40;17.60;;;;;;;;;;4981476;28;20239;-84
2022/01/18 06:36:31;;;;;;;45.15;19.70;;;4.20;99.90;;;;;;4978174;28;20439;-86
2022/01/18 06:38:57;;;;;;;51.67;20.03;;;4.20;99.90;;;;;;4964964;28;20240;-85
2022/01/18 06:41:23;;;;;;;66.40;33.73;;;4.20;99.90;;;;;;4955589;28;20261;-84
2022/01/18 06:43:48;;;;;;;50.37;27.03;;;4.20;99.90;;;;;;4962493;28;20258;-84
2022/01/18 06:46:14;;;;;;;47.33;23.20;;;4.20;99.90;;;;;;4960373;28;20711;-84
2022/01/18 06:48:42;;;;;;;55.77;25.53;;;4.20;99.90;;;;;;4960299;28;20215;-87
2022/01/18 06:51:08;;;;;;;38.40;18.60;;;4.20;99.90;;;;;;4961810;28;20208;-83
2022/01/18 06:53:39;;;;;;;47.30;23.50;;;4.10;99.90;;;;;;4959160;28;20202;-85
2022/01/18 06:56:05;;;;;;;49.05;26.58;;;4.20;99.90;;;;;;4959286;28;20203;-84
2022/01/18 06:58:31;;;;;;;48.07;20.73;;;;;;;;;;4967420;28;20210;-87
2022/01/18 07:00:57;;;;;;;41.20;18.93;;;;;;;;;;4968254;28;20289;-87
2022/01/18 07:03:22;;;;;;;43.70;17.80;;;4.30;99.90;;;;;;4968986;28;20439;-85
2022/01/18 07:05:48;;;;;;;36.97;18.23;;;4.40;99.90;;;;;;4966058;28;20470;-85
2022/01/18 07:08:13;;;;;;;36.00;17.60;;;4.40;99.90;;;;;;4963867;28;20229;-83
2022/01/18 07:10:39;;;;;;;31.70;17.20;;;;;;;;;;4965338;28;20677;-86
2022/01/18 07:13:05;;;;;;;27.60;14.53;;;4.50;99.90;;;;;;4961136;28;20184;-86
2022/01/18 07:15:30;;;;;;;33.33;14.77;;;4.40;99.90;;;;;;4965961;28;20993;-84
2022/01/18 07:17:56;;;;;;;26.43;13.20;;;;;;;;;;4965721;28;20270;-86
2022/01/18 07:20:22;;;;;;;35.03;14.80;;;4.10;99.90;;;;;;4961956;28;20190;-86
2022/01/18 07:22:48;;;;;;;34.00;15.87;;;4.10;99.90;;;;;;4966497;28;20435;-83
2022/01/18 07:25:15;;;;;;;35.13;16.40;;;4.20;99.90;;;;;;4962548;28;20204;-85
2022/01/18 07:27:41;;;;;;;33.20;16.80;;;4.20;99.90;;;;;;4962433;28;20443;-85
2022/01/18 07:30:07;;;;;;;40.63;20.73;;;4.20;99.90;;;;;;4956358;28;20198;-85
2022/01/18 07:32:33;;;;;;;39.88;20.35;;;4.00;99.90;;;;;;4952234;28;20187;-83
2022/01/18 07:34:59;;;;;;;44.53;20.83;;;;;;;;;;4961860;28;20281;-84
2022/01/18 07:37:24;;;;;;;24.27;14.50;;;4.20;99.90;;;;;;4963085;28;20184;-85
2022/01/18 07:39:51;;;;;;;29.83;14.70;;;4.10;99.90;;;;;;4965469;28;20645;-85
2022/01/18 07:42:19;;;;;;;30.77;17.73;;;4.10;99.90;;;;;;4949693;28;20208;-84
2022/01/18 07:44:44;;;;;;;38.90;18.45;;;4.20;99.90;;;;;;4955005;28;20256;-84
2022/01/18 07:47:10;;;;;;;31.63;13.57;;;4.30;99.90;;;;;;4951632;28;20195;-84
2022/01/18 07:49:36;;;;;;;43.50;16.60;;;;;;;;;;4963382;28;20208;-86
2022/01/18 07:52:01;;;;;;;33.13;16.47;;;4.10;99.90;;;;;;4956276;28;20184;-85
2022/01/18 07:54:27;;;;;;;29.07;15.17;;;;;;;;;;4958569;28;20467;-86
2022/01/18 07:56:53;;;;;;;33.40;16.43;;;;;;;;;;4952004;28;20595;-85
2022/01/18 07:59:20;;;;;;;38.67;16.60;;;;;;;;;;4949017;28;20495;-86
2022/01/18 08:01:46;;;;;;;43.65;18.67;;;4.10;99.90;;;;;;4958875;28;21013;-85
2022/01/18 08:04:12;;;;;;;43.53;19.02;;;4.10;99.90;;;;;;4958639;28;20180;-85
2022/01/18 08:06:38;;;;;;;47.43;20.70;;;4.10;99.90;;;;;;4961997;28;20199;-84
2022/01/18 08:09:04;;;;;;;45.83;18.77;;;4.10;99.90;;;;;;4964257;28;21167;-86
2022/01/18 08:11:30;;;;;;;42.20;18.20;;;4.10;99.90;;;;;;4962597;28;20196;-85
2022/01/18 08:13:57;;;;;;;44.23;19.87;;;4.10;99.90;;;;;;4953534;28;20455;-85
2022/01/18 08:18:59;;;;;;;50.90;19.50;;;4.00;99.90;;;;;;4966000;28;20176;-85
2022/01/18 08:21:25;;;;;;;53.38;22.08;;;3.90;99.90;;;;;;4981806;28;20192;-86
2022/01/18 08:23:51;;;;;;;41.03;20.87;;;3.90;99.90;;;;;;4959259;28;20554;-85
2022/01/18 08:26:17;;;;;;;45.10;20.60;;;4.10;99.90;;;;;;4970858;28;20443;-84
2022/01/18 08:28:43;;;;;;;49.17;22.80;;;4.10;99.90;;;;;;4972815;28;20196;-86
2022/01/18 08:31:09;;;;;;;52.35;23.33;;;4.10;99.90;;;;;;4970812;28;20184;-85
2022/01/18 08:33:34;;;;;;;45.93;20.73;;;4.20;99.90;;;;;;4982147;28;20176;-82
2022/01/18 08:36:06;;;;;;;54.03;21.73;;;4.20;99.90;;;;;;4976879;28;20216;-85
2022/01/18 08:38:32;;;;;;;46.40;22.63;;;4.30;99.90;;;;;;4960930;28;20195;-84
2022/01/18 08:40:59;;;;;;;50.77;24.20;;;4.30;99.90;;;;;;4962975;28;20519;-85
2022/01/18 08:43:26;;;;;;;55.75;24.92;;;4.40;99.90;;;;;;4961838;28;20447;-85
2022/01/18 08:45:51;;;;;;;45.15;21.48;;;4.70;99.90;;;;;;4962453;28;20207;-86
2022/01/18 08:48:17;;;;;;;49.27;22.13;;;;;;;;;;4954484;28;20714;-84
2022/01/18 08:50:44;;;;;;;54.60;26.70;;;5.20;99.90;;;;;;4968004;28;20192;-84
2022/01/18 08:53:10;;;;;;;45.08;22.88;;;;;;;;;;4968943;28;20823;-85
2022/01/18 08:55:35;;;;;;;44.88;23.33;;;5.30;99.90;;;;;;4958677;28;20219;-83
2022/01/18 08:58:02;;;;;;;54.03;21.70;;;5.70;99.90;;;;;;4963907;28;20850;-83
2022/01/18 09:00:30;;;;;;;47.15;24.58;;;5.70;99.90;;;;;;4962563;28;20204;-85
2022/01/18 09:02:56;;;;;;;46.83;21.75;;;;;;;;;;4956366;28;20257;-83
2022/01/18 09:05:23;;;;;;;38.63;21.10;;;5.80;99.90;;;;;;4959558;28;20211;-85
2022/01/18 09:07:50;;;;;;;45.72;23.17;;;5.90;99.90;;;;;;4962337;28;20439;-84
2022/01/18 09:10:16;;;;;;;43.30;23.35;;;5.90;99.90;;;;;;4956483;28;20208;-84
2022/01/18 09:12:42;;;;;;;41.70;23.97;;;;;;;;;;4959207;28;20205;-83
2022/01/18 09:15:10;;;;;;;36.33;21.48;;;6.30;99.90;;;;;;4960158;28;20466;-84
2022/01/18 09:17:37;;;;;;;38.60;21.63;;;6.40;99.90;;;;;;4961973;28;20191;-85
2022/01/18 09:20:08;;;;;;;33.85;18.60;;;6.60;99.90;;;;;;4968473;28;20184;-84
2022/01/18 09:22:35;;;;;;;38.28;21.08;;;6.80;99.90;;;;;;4963068;28;20234;-84
2022/01/18 09:25:03;;;;;;;38.67;20.00;;;7.10;99.90;;;;;;4946032;28;20207;-84
2022/01/18 09:27:29;;;;;;;39.28;20.20;;;;;;;;;;4951620;28;20511;-83
2022/01/18 09:29:55;;;;;;;39.20;20.55;;;;;;;;;;4949536;28;20659;-85
2022/01/18 09:32:22;;;;;;;35.97;19.50;;;;;;;;;;4956037;28;20199;-85
2022/01/18 09:34:48;;;;;;;35.42;18.65;;;7.30;99.90;;;;;;4954157;28;20557;-85
2022/01/18 09:37:14;;;;;;;36.38;18.88;;;7.40;99.90;;;;;;4947596;28;20262;-84
2022/01/18 09:39:40;;;;;;;33.27;18.03;;;;;;;;;;4954630;28;20370;-86
2022/01/18 09:42:06;;;;;;;36.47;18.67;;;7.30;99.90;;;;;;4950360;28;20248;-83
2022/01/18 09:44:32;;;;;;;36.58;16.88;;;7.40;99.90;;;;;;4958423;28;20830;-84
2022/01/18 09:46:58;;;;;;;39.00;20.70;;;;;;;;;;4961243;28;20186;-85
2022/01/18 09:49:24;;;;;;;39.10;19.13;;;;;;;;;;4960302;28;20273;-85
2022/01/18 09:51:51;;;;;;;29.58;17.65;;;6.40;99.90;;;;;;4970034;28;20450;-86
2022/01/18 09:54:17;;;;;;;38.05;18.67;;;6.60;99.90;;;;;;4966679;28;20867;-85
2022/01/18 09:56:43;;;;;;;47.35;20.55;;;;;;;;;;4955989;28;20249;-85
2022/01/18 09:59:08;;;;;;;36.17;18.33;;;6.80;99.90;;;;;;4951430;28;20234;-84
2022/01/18 10:01:35;;;;;;;40.90;19.47;;;6.90;99.90;;;;;;4956276;28;20323;-83
2022/01/18 10:04:31;;;;;;;36.50;19.77;;;7.10;99.90;;;;;;4949700;28;20187;-87
2022/01/18 10:06:57;;;;;;;29.88;15.98;;;7.10;99.90;;;;;;4951403;28;20180;-85
2022/01/18 10:09:25;;;;;;;31.75;17.25;;;7.10;99.90;;;;;;4964273;28;20188;-86
2022/01/18 10:12:07;;;;;;;37.15;18.25;;;7.10;99.90;;;;;;4963013;28;20204;-86
2022/01/18 10:14:34;;;;;;;34.85;17.15;;;7.10;99.90;;;;;;4954924;28;20204;-85
2022/01/18 10:17:00;;;;;;;29.02;14.15;;;7.10;99.90;;;;;;4965643;28;20183;-83
2022/01/18 10:19:33;;;;;;;32.58;17.27;;;7.20;99.90;;;;;;4965836;28;20214;-85
2022/01/18 10:22:17;;;;;;;31.25;17.60;;;7.20;99.90;;;;;;4968625;28;20208;-84
2022/01/18 10:24:43;;;;;;;39.90;17.48;;;7.40;99.90;;;;;;4964011;28;21169;-83
2022/01/18 10:27:11;;;;;;;30.33;16.70;;;7.50;99.90;;;;;;4957562;28;20184;-85
2022/01/18 10:29:44;;;;;;;25.45;12.57;;;7.50;99.90;;;;;;4966711;28;20188;-84
2022/01/18 10:32:14;;;;;;;23.13;12.57;;;7.70;99.90;;;;;;4975398;28;20375;-83
2022/01/18 10:37:19;;;;;;;26.60;15.10;;;7.70;99.90;;;;;;4963900;28;20211;-86
2022/01/18 10:39:51;;;;;;;23.77;12.63;;;7.80;99.90;;;;;;4962211;28;20598;-86
2022/01/18 10:42:23;;;;;;;26.45;13.98;;;8.00;99.90;;;;;;4968642;28;20211;-85
2022/01/18 10:44:59;;;;;;;27.02;14.82;;;8.30;99.90;;;;;;4962472;28;20219;-85
2022/01/18 10:47:25;;;;;;;22.48;10.80;;;8.30;99.90;;;;;;4953925;28;20175;-83
2022/01/18 10:49:52;;;;;;;29.92;15.93;;;;;;;;;;4966135;28;20191;-84
2022/01/18 10:52:24;;;;;;;29.90;16.45;;;8.10;99.90;;;;;;4961699;28;20187;-85
2022/01/18 10:54:57;;;;;;;33.80;16.65;;;6.80;99.90;;;;;;4963487;28;20207;-86
2022/01/18 10:57:26;;;;;;;29.17;15.82;;;7.80;99.90;;;;;;4960161;28;20183;-85
2022/01/18 10:59:56;;;;;;;32.60;17.60;;;7.80;99.90;;;;;;4959980;28;20200;-85
2022/01/18 11:02:22;;;;;;;25.95;13.63;;;;;;;;;;4965978;28;20199;-86
2022/01/18 11:04:50;;;;;;;29.75;15.38;;;8.10;99.90;;;;;;4961117;28;20203;-84
2022/01/18 11:07:19;;;;;;;26.90;12.88;;;8.00;99.90;;;;;;4956343;28;20187;-86
2022/01/18 11:09:45;;;;;;;24.20;12.90;;;8.20;99.90;;;;;;4955235;28;20192;-86
2022/01/18 11:12:11;;;;;;;24.30;15.17;;;8.40;99.90;;;;;;4956668;28;20823;-84
2022/01/18 11:14:43;;;;;;;22.00;10.18;;;8.40;99.90;;;;;;4952289;28;20471;-85
2022/01/18 11:17:11;;;;;;;24.92;12.70;;;8.40;99.90;;;;;;4953403;28;20188;-86
2022/01/18 11:19:38;;;;;;;29.55;10.35;;;;;;;;;;4966765;28;20554;-85
2022/01/18 11:22:10;;;;;;;19.60;9.90;;;8.60;99.90;;;;;;4966034;28;20207;-85
2022/01/18 11:24:39;;;;;;;17.02;9.07;;;8.60;99.90;;;;;;4967002;28;20314;-85
2022/01/18 11:27:13;;;;;;;12.95;8.63;;;8.50;99.90;;;;;;4968320;28;20233;-83
2022/01/18 11:29:44;;;;;;;18.15;8.50;;;8.50;99.90;;;;;;4960104;28;20354;-84
2022/01/18 11:32:10;;;;;;;18.15;9.70;;;8.30;99.90;;;;;;4968608;28;20179;-84
2022/01/18 11:34:49;;;;;;;16.15;7.97;;;8.40;99.90;;;;;;4968806;28;20203;-85
2022/01/18 11:37:21;;;;;;;16.02;8.10;;;8.40;99.90;;;;;;4957628;28;20198;-85
2022/01/18 11:39:47;;;;;;;20.35;8.00;;;;;;;;;;4964048;28;20191;-83
2022/01/18 11:42:13;;;;;;;20.38;8.30;;;8.40;99.90;;;;;;4963682;28;20598;-86
2022/01/18 11:44:40;;;;;;;22.15;8.73;;;7.80;99.90;;;;;;4960903;28;20235;-82
2022/01/18 11:47:08;;;;;;;17.75;8.55;;;8.50;99.90;;;;;;4959707;28;20176;-83
2022/01/18 11:49:34;;;;;;;18.80;9.55;;;8.60;99.90;;;;;;4961831;28;20187;-86
2022/01/18 11:52:10;;;;;;;21.42;10.45;;;8.80;99.90;;;;;;4962337;28;20193;-85
2022/01/18 11:54:56;;;;;;;17.23;9.20;;;8.80;99.90;;;;;;4956047;28;20969;-84
2022/01/18 11:57:25;;;;;;;18.55;9.48;;;8.70;99.90;;;;;;4953392;28;20723;-83
2022/01/18 11:59:51;;;;;;;21.60;9.63;;;;;;;;;;4961963;28;20176;-84
2022/01/18 12:02:41;;;;;;;20.27;9.63;;;8.70;99.90;;;;;;4953763;28;20212;-84
2022/01/18 12:05:17;;;;;;;20.85;9.35;;;8.80;99.90;;;;;;4969845;28;20476;-85
2022/01/18 12:07:44;;;;;;;20.83;9.90;;;8.60;99.90;;;;;;4959628;28;20263;-84
2022/01/18 12:10:31;;;;;;;19.75;9.65;;;8.30;99.90;;;;;;4965462;28;20180;-85
2022/01/18 12:13:11;;;;;;;38.17;11.13;;;8.30;99.90;;;;;;4972212;28;20193;-84
2022/01/18 12:15:38;;;;;;;24.23;12.23;;;8.20;99.90;;;;;;4971223;28;21008;-85
2022/01/18 12:18:10;;;;;;;16.42;9.95;;;8.20;99.90;;;;;;4963929;28;20428;-84
2022/01/18 12:20:46;;;;;;;25.45;11.30;;;;;;;;;;4965292;28;20214;-84
2022/01/18 12:23:21;;;;;;;24.05;12.73;;;8.10;99.90;;;;;;4970546;28;20195;-84
2022/01/18 12:26:20;;;;;;;21.27;12.27;;;8.00;99.90;;;;;;4971049;28;20203;-85
2022/01/18 12:34:34;;;;;;;21.38;12.85;;;7.60;99.90;;;;;;4975027;28;20176;-84
2022/01/18 12:45:02;;;;;;;25.08;11.15;;;7.80;99.90;;;;;;4968939;28;20216;-86
2022/01/18 12:47:28;;;;;;;16.25;8.75;;;7.70;99.90;;;;;;4965057;28;20185;-85
2022/01/18 12:49:54;;;;;;;25.13;8.60;;;7.40;99.90;;;;;;4962304;28;20191;-85
2022/01/18 12:52:20;;;;;;;29.75;15.43;;;;;;;;;;4978348;28;20206;-84
2022/01/18 12:54:49;;;;;;;27.17;15.27;;;;;;;;;;4975703;28;20674;-86
2022/01/18 12:57:21;;;;;;;24.05;13.65;;;7.30;99.90;;;;;;4965514;28;20180;-84
2022/01/18 13:00:15;;;;;;;25.02;13.52;;;7.10;99.90;;;;;;4967619;28;20188;-85
2022/01/18 13:02:46;;;;;;;27.92;12.23;;;6.80;99.90;;;;;;4973436;28;20221;-83
2022/01/18 13:05:12;;;;;;;27.45;11.80;;;6.70;99.90;;;;;;4969139;28;20223;-86
2022/01/18 13:07:52;;;;;;;21.77;11.80;;;6.50;99.90;;;;;;4962698;28;20192;-86
2022/01/18 13:10:18;;;;;;;27.15;14.05;;;6.70;99.90;;;;;;4966372;28;20183;-86
2022/01/18 13:12:45;;;;;;;24.73;12.43;;;;;;;;;;4965038;28;20195;-84
2022/01/18 13:15:13;;;;;;;27.75;11.52;;;;;;;;;;4961377;28;20204;-86
2022/01/18 13:23:43;;;;;;;18.25;9.20;;;6.80;99.90;;;;;;4979143;28;20605;-84
2022/01/18 13:26:08;;;;;;;21.30;9.80;;;;;;;;;;4972293;28;20286;-83
2022/01/18 13:28:35;;;;;;;23.70;11.13;;;6.70;99.90;;;;;;4963731;28;20214;-84
2022/01/18 13:31:22;;;;;;;25.45;9.63;;;6.70;99.90;;;;;;4967778;28;20476;-86
2022/01/18 13:33:50;;;;;;;17.33;10.02;;;6.70;99.90;;;;;;4986834;28;20188;-85
2022/01/18 13:36:16;;;;;;;20.50;10.23;;;6.70;99.90;;;;;;4961144;28;20263;-82
2022/01/18 13:38:42;;;;;;;15.87;8.53;;;;;;;;;;4972299;28;20223;-86
2022/01/18 13:41:08;;;;;;;21.03;10.13;;;;;;;;;;4964295;28;20203;-84
2022/01/18 13:43:34;;;;;;;23.27;8.93;;;;;;;;;;4959623;28;20499;-86
2022/01/18 13:46:00;;;;;;;15.27;7.97;;;;;;;;;;4956370;28;20502;-85
2022/01/18 13:48:33;;;;;;;17.52;8.80;;;6.80;99.90;;;;;;4961067;28;20805;-85
2022/01/18 13:51:08;;;;;;;13.15;7.60;;;6.70;99.90;;;;;;4964087;28;20180;-83
2022/01/18 13:53:35;;;;;;;16.13;5.85;;;6.90;99.90;;;;;;4963837;28;20187;-85
2022/01/18 13:56:09;;;;;;;12.75;7.45;;;6.90;99.90;;;;;;4964351;28;20238;-85
2022/01/18 13:58:42;;;;;;;17.85;7.20;;;7.00;99.90;;;;;;4958821;28;20255;-86
2022/01/18 14:01:17;;;;;;;15.07;6.30;;;7.00;99.90;;;;;;4965127;28;20597;-84
2022/01/18 14:03:53;;;;;;;18.02;5.78;;;6.90;99.90;;;;;;4960956;28;20202;-83
2022/01/18 14:06:20;;;;;;;13.25;5.90;;;6.90;99.90;;;;;;4965267;28;20241;-84
2022/01/18 14:08:51;;;;;;;8.07;5.63;;;9.50;99.90;;;;;;4967942;28;20194;-85
2022/01/18 14:11:19;;;;;;;13.27;7.22;;;7.00;99.90;;;;;;4968897;28;20279;-84
2022/01/18 14:13:46;;;;;;;9.55;5.45;;;7.10;99.90;;;;;;4961861;28;20184;-84
2022/01/18 14:16:29;;;;;;;15.50;8.18;;;7.10;99.90;;;;;;4962260;28;20246;-84
2022/01/18 14:19:04;;;;;;;11.82;6.13;;;7.00;99.90;;;;;;4964262;28;20180;-86
2022/01/18 14:21:31;;;;;;;13.68;7.68;;;6.90;99.90;;;;;;4957994;28;20857;-83
2022/01/18 14:24:08;;;;;;;13.32;5.25;;;6.90;99.90;;;;;;4970948;28;20306;-82
2022/01/18 14:26:35;;;;;;;16.75;6.57;;;6.80;99.90;;;;;;4969910;28;20186;-86
2022/01/18 14:29:03;;;;;;;15.13;5.85;;;6.80;99.90;;;;;;4966360;28;20195;-83
2022/01/18 14:31:29;;;;;;;12.15;4.68;;;;;;;;;;4981119;28;20202;-85